sensor_id;sensor_type;location;lat;lon;timestamp;P1;durP1;ratioP1;P2;durP2;ratioP2
8490;SDS011;4282;49.986;7.938;2023-04-07T00:02:00;12.73;;;10.20;;
8490;SDS011;4282;49.986;7.938;2023-04-07T00:04:28;14.47;;;10.40;;
8490;SDS011;4282;49.986;7.938;2023-04-07T00:06:57;14.83;;;10.33;;
8490;SDS011;4282;49.986;7.938;2023-04-07T00:09:25;14.97;;;10.50;;
8490;SDS011;4282;49.986;7.938;2023-04-07T00:11:53;15.10;;;10.17;;
8490;SDS011;4282;49.986;7.938;2023-04-07T00:14:24;14.23;;;10.43;;
8490;SDS011;4282;49.986;7.938;2023-04-07T00:16:52;15.37;;;11.07;;
8490;SDS011;4282;49.986;7.938;2023-04-07T00:19:20;15.50;;;10.33;;
8490;SDS011;4282;49.986;7.938;2023-04-07T00:21:49;14.13;;;11.10;;
8490;SDS011;4282;49.986;7.938;2023-04-07T00:24:18;14.37;;;10.97;;
8490;SDS011;4282;49.986;7.938;2023-04-07T00:26:46;14.30;;;11.13;;
8490;SDS011;4282;49.986;7.938;2023-04-07T00:29:14;15.77;;;11.70;;
8490;SDS011;4282;49.986;7.938;2023-04-07T00:31:45;15.47;;;11.67;;
8490;SDS011;4282;49.986;7.938;2023-04-07T00:34:13;15.73;;;11.30;;
8490;SDS011;4282;49.986;7.938;2023-04-07T00:36:42;18.37;;;13.10;;
8490;SDS011;4282;49.986;7.938;2023-04-07T00:39:15;20.10;;;12.17;;
8490;SDS011;4282;49.986;7.938;2023-04-07T00:41:44;14.63;;;11.80;;
8490;SDS011;4282;49.986;7.938;2023-04-07T00:44:12;15.77;;;11.40;;
8490;SDS011;4282;49.986;7.938;2023-04-07T00:46:41;16.93;;;12.63;;
8490;SDS011;4282;49.986;7.938;2023-04-07T00:49:12;19.17;;;12.97;;
8490;SDS011;4282;49.986;7.938;2023-04-07T00:51:42;16.07;;;12.17;;
8490;SDS011;4282;49.986;7.938;2023-04-07T00:54:10;16.43;;;12.50;;
8490;SDS011;4282;49.986;7.938;2023-04-07T00:56:39;18.20;;;12.20;;
8490;SDS011;4282;49.986;7.938;2023-04-07T00:59:07;16.03;;;12.10;;
8490;SDS011;4282;49.986;7.938;2023-04-07T01:01:37;17.30;;;12.40;;
8490;SDS011;4282;49.986;7.938;2023-04-07T01:04:12;17.53;;;13.37;;
8490;SDS011;4282;49.986;7.938;2023-04-07T01:06:47;17.50;;;12.63;;
8490;SDS011;4282;49.986;7.938;2023-04-07T01:09:18;16.63;;;12.73;;
8490;SDS011;4282;49.986;7.938;2023-04-07T01:11:50;16.60;;;12.60;;
8490;SDS011;4282;49.986;7.938;2023-04-07T01:14:23;16.57;;;12.23;;
8490;SDS011;4282;49.986;7.938;2023-04-07T01:16:51;17.00;;;12.07;;
8490;SDS011;4282;49.986;7.938;2023-04-07T01:19:35;16.07;;;11.70;;
8490;SDS011;4282;49.986;7.938;2023-04-07T01:22:05;16.43;;;11.17;;
8490;SDS011;4282;49.986;7.938;2023-04-07T01:24:55;16.93;;;12.40;;
8490;SDS011;4282;49.986;7.938;2023-04-07T01:27:48;17.87;;;12.67;;
8490;SDS011;4282;49.986;7.938;2023-04-07T01:30:30;15.80;;;12.73;;
8490;SDS011;4282;49.986;7.938;2023-04-07T01:33:00;18.53;;;12.97;;
8490;SDS011;4282;49.986;7.938;2023-04-07T01:35:31;17.83;;;12.30;;
8490;SDS011;4282;49.986;7.938;2023-04-07T01:38:01;15.67;;;12.63;;
8490;SDS011;4282;49.986;7.938;2023-04-07T01:40:30;19.40;;;13.93;;
8490;SDS011;4282;49.986;7.938;2023-04-07T01:43:00;15.83;;;12.37;;
8490;SDS011;4282;49.986;7.938;2023-04-07T01:45:31;17.83;;;13.00;;
8490;SDS011;4282;49.986;7.938;2023-04-07T01:48:01;17.70;;;12.27;;
8490;SDS011;4282;49.986;7.938;2023-04-07T01:50:32;19.23;;;12.63;;
8490;SDS011;4282;49.986;7.938;2023-04-07T01:53:00;16.03;;;12.23;;
8490;SDS011;4282;49.986;7.938;2023-04-07T01:55:30;17.47;;;13.67;;
8490;SDS011;4282;49.986;7.938;2023-04-07T01:58:02;17.47;;;13.13;;
8490;SDS011;4282;49.986;7.938;2023-04-07T02:00:34;18.97;;;13.60;;
8490;SDS011;4282;49.986;7.938;2023-04-07T02:03:04;19.90;;;14.70;;
8490;SDS011;4282;49.986;7.938;2023-04-07T02:05:37;21.13;;;14.60;;
8490;SDS011;4282;49.986;7.938;2023-04-07T02:08:07;21.03;;;14.23;;
8490;SDS011;4282;49.986;7.938;2023-04-07T02:10:36;22.63;;;15.47;;
8490;SDS011;4282;49.986;7.938;2023-04-07T02:13:07;20.50;;;14.43;;
8490;SDS011;4282;49.986;7.938;2023-04-07T02:15:38;21.60;;;14.93;;
8490;SDS011;4282;49.986;7.938;2023-04-07T02:18:08;22.10;;;15.30;;
8490;SDS011;4282;49.986;7.938;2023-04-07T02:20:37;20.40;;;15.10;;
8490;SDS011;4282;49.986;7.938;2023-04-07T02:23:07;20.83;;;14.30;;
8490;SDS011;4282;49.986;7.938;2023-04-07T02:25:36;20.50;;;14.13;;
8490;SDS011;4282;49.986;7.938;2023-04-07T02:28:05;18.70;;;13.67;;
8490;SDS011;4282;49.986;7.938;2023-04-07T02:30:33;18.23;;;13.23;;
8490;SDS011;4282;49.986;7.938;2023-04-07T02:33:05;19.17;;;13.00;;
8490;SDS011;4282;49.986;7.938;2023-04-07T02:35:33;18.70;;;13.20;;
8490;SDS011;4282;49.986;7.938;2023-04-07T02:38:01;21.23;;;14.03;;
8490;SDS011;4282;49.986;7.938;2023-04-07T02:40:29;19.13;;;13.53;;
8490;SDS011;4282;49.986;7.938;2023-04-07T02:42:57;18.63;;;13.83;;
8490;SDS011;4282;49.986;7.938;2023-04-07T02:45:26;19.20;;;12.80;;
8490;SDS011;4282;49.986;7.938;2023-04-07T02:47:54;21.83;;;14.73;;
8490;SDS011;4282;49.986;7.938;2023-04-07T02:50:25;21.20;;;14.13;;
8490;SDS011;4282;49.986;7.938;2023-04-07T02:52:53;19.67;;;14.83;;
8490;SDS011;4282;49.986;7.938;2023-04-07T02:55:21;17.53;;;13.53;;
8490;SDS011;4282;49.986;7.938;2023-04-07T02:57:49;18.33;;;13.70;;
8490;SDS011;4282;49.986;7.938;2023-04-07T03:00:18;19.40;;;14.07;;
8490;SDS011;4282;49.986;7.938;2023-04-07T03:02:46;19.63;;;13.63;;
8490;SDS011;4282;49.986;7.938;2023-04-07T03:05:15;20.30;;;15.03;;
8490;SDS011;4282;49.986;7.938;2023-04-07T03:07:45;19.23;;;13.87;;
8490;SDS011;4282;49.986;7.938;2023-04-07T03:10:14;21.00;;;14.57;;
8490;SDS011;4282;49.986;7.938;2023-04-07T03:12:42;17.80;;;12.83;;
8490;SDS011;4282;49.986;7.938;2023-04-07T03:15:10;19.43;;;14.07;;
8490;SDS011;4282;49.986;7.938;2023-04-07T03:17:38;20.30;;;14.93;;
8490;SDS011;4282;49.986;7.938;2023-04-07T03:20:07;23.10;;;14.77;;
8490;SDS011;4282;49.986;7.938;2023-04-07T03:22:36;19.70;;;13.97;;
8490;SDS011;4282;49.986;7.938;2023-04-07T03:25:08;19.67;;;13.80;;
8490;SDS011;4282;49.986;7.938;2023-04-07T03:27:36;19.73;;;14.70;;
8490;SDS011;4282;49.986;7.938;2023-04-07T03:30:05;19.53;;;14.63;;
8490;SDS011;4282;49.986;7.938;2023-04-07T03:32:36;20.97;;;14.67;;
8490;SDS011;4282;49.986;7.938;2023-04-07T03:35:05;20.63;;;15.17;;
8490;SDS011;4282;49.986;7.938;2023-04-07T03:37:34;21.33;;;14.30;;
8490;SDS011;4282;49.986;7.938;2023-04-07T03:40:02;18.57;;;14.13;;
8490;SDS011;4282;49.986;7.938;2023-04-07T03:42:33;18.73;;;14.67;;
8490;SDS011;4282;49.986;7.938;2023-04-07T03:45:02;18.27;;;14.17;;
8490;SDS011;4282;49.986;7.938;2023-04-07T03:47:30;18.23;;;13.67;;
8490;SDS011;4282;49.986;7.938;2023-04-07T03:49:58;19.33;;;14.13;;
8490;SDS011;4282;49.986;7.938;2023-04-07T03:52:27;20.80;;;14.77;;
8490;SDS011;4282;49.986;7.938;2023-04-07T03:54:55;22.67;;;16.27;;
8490;SDS011;4282;49.986;7.938;2023-04-07T03:57:23;21.03;;;15.10;;
8490;SDS011;4282;49.986;7.938;2023-04-07T03:59:54;21.93;;;15.80;;
8490;SDS011;4282;49.986;7.938;2023-04-07T04:02:22;25.57;;;16.37;;
8490;SDS011;4282;49.986;7.938;2023-04-07T04:04:50;20.20;;;15.20;;
8490;SDS011;4282;49.986;7.938;2023-04-07T04:07:18;23.40;;;16.20;;
8490;SDS011;4282;49.986;7.938;2023-04-07T04:09:46;21.97;;;15.43;;
8490;SDS011;4282;49.986;7.938;2023-04-07T04:12:15;21.97;;;15.77;;
8490;SDS011;4282;49.986;7.938;2023-04-07T04:14:43;24.27;;;16.40;;
8490;SDS011;4282;49.986;7.938;2023-04-07T04:17:14;22.27;;;15.33;;
8490;SDS011;4282;49.986;7.938;2023-04-07T04:19:42;21.33;;;15.83;;
8490;SDS011;4282;49.986;7.938;2023-04-07T04:22:10;21.80;;;15.77;;
8490;SDS011;4282;49.986;7.938;2023-04-07T04:24:38;24.60;;;19.50;;
8490;SDS011;4282;49.986;7.938;2023-04-07T04:27:06;25.70;;;17.47;;
8490;SDS011;4282;49.986;7.938;2023-04-07T04:29:35;24.83;;;16.90;;
8490;SDS011;4282;49.986;7.938;2023-04-07T04:32:03;26.67;;;17.77;;
8490;SDS011;4282;49.986;7.938;2023-04-07T04:34:34;26.60;;;17.60;;
8490;SDS011;4282;49.986;7.938;2023-04-07T04:37:02;26.70;;;17.83;;
8490;SDS011;4282;49.986;7.938;2023-04-07T04:39:31;26.03;;;17.27;;
8490;SDS011;4282;49.986;7.938;2023-04-07T04:41:59;29.07;;;18.23;;
8490;SDS011;4282;49.986;7.938;2023-04-07T04:44:28;27.97;;;18.60;;
8490;SDS011;4282;49.986;7.938;2023-04-07T04:46:56;26.53;;;18.50;;
8490;SDS011;4282;49.986;7.938;2023-04-07T04:49:24;25.60;;;17.40;;
8490;SDS011;4282;49.986;7.938;2023-04-07T04:51:55;29.00;;;19.40;;
8490;SDS011;4282;49.986;7.938;2023-04-07T04:54:23;27.77;;;18.30;;
8490;SDS011;4282;49.986;7.938;2023-04-07T04:56:52;27.50;;;18.20;;
8490;SDS011;4282;49.986;7.938;2023-04-07T04:59:21;26.90;;;17.40;;
8490;SDS011;4282;49.986;7.938;2023-04-07T05:01:50;24.30;;;17.10;;
8490;SDS011;4282;49.986;7.938;2023-04-07T05:04:19;25.63;;;17.97;;
8490;SDS011;4282;49.986;7.938;2023-04-07T05:06:47;26.13;;;17.87;;
8490;SDS011;4282;49.986;7.938;2023-04-07T05:09:18;22.87;;;16.63;;
8490;SDS011;4282;49.986;7.938;2023-04-07T05:11:46;24.97;;;17.50;;
8490;SDS011;4282;49.986;7.938;2023-04-07T05:14:15;24.40;;;18.00;;
8490;SDS011;4282;49.986;7.938;2023-04-07T05:16:43;26.53;;;18.23;;
8490;SDS011;4282;49.986;7.938;2023-04-07T05:19:12;24.70;;;18.07;;
8490;SDS011;4282;49.986;7.938;2023-04-07T05:21:40;30.13;;;19.67;;
8490;SDS011;4282;49.986;7.938;2023-04-07T05:24:08;28.37;;;18.97;;
8490;SDS011;4282;49.986;7.938;2023-04-07T05:26:39;26.63;;;18.37;;
8490;SDS011;4282;49.986;7.938;2023-04-07T05:29:07;29.07;;;18.93;;
8490;SDS011;4282;49.986;7.938;2023-04-07T05:31:35;29.67;;;19.40;;
8490;SDS011;4282;49.986;7.938;2023-04-07T05:34:05;28.20;;;19.03;;
8490;SDS011;4282;49.986;7.938;2023-04-07T05:36:33;26.93;;;17.80;;
8490;SDS011;4282;49.986;7.938;2023-04-07T05:39:02;26.57;;;18.33;;
8490;SDS011;4282;49.986;7.938;2023-04-07T05:41:30;29.67;;;20.33;;
8490;SDS011;4282;49.986;7.938;2023-04-07T05:44:01;28.00;;;18.97;;
8490;SDS011;4282;49.986;7.938;2023-04-07T05:46:30;25.30;;;18.20;;
8490;SDS011;4282;49.986;7.938;2023-04-07T05:48:58;28.30;;;18.03;;
8490;SDS011;4282;49.986;7.938;2023-04-07T05:51:26;31.90;;;20.23;;
8490;SDS011;4282;49.986;7.938;2023-04-07T05:53:55;26.90;;;18.30;;
8490;SDS011;4282;49.986;7.938;2023-04-07T05:56:23;28.17;;;18.80;;
8490;SDS011;4282;49.986;7.938;2023-04-07T05:58:52;27.27;;;18.93;;
8490;SDS011;4282;49.986;7.938;2023-04-07T06:01:23;27.93;;;19.43;;
8490;SDS011;4282;49.986;7.938;2023-04-07T06:03:51;31.97;;;20.30;;
8490;SDS011;4282;49.986;7.938;2023-04-07T06:06:19;27.73;;;19.27;;
8490;SDS011;4282;49.986;7.938;2023-04-07T06:08:47;26.40;;;18.30;;
8490;SDS011;4282;49.986;7.938;2023-04-07T06:11:16;29.87;;;18.83;;
8490;SDS011;4282;49.986;7.938;2023-04-07T06:13:45;31.47;;;18.83;;
8490;SDS011;4282;49.986;7.938;2023-04-07T06:16:13;30.13;;;19.07;;
8490;SDS011;4282;49.986;7.938;2023-04-07T06:18:44;30.30;;;20.27;;
8490;SDS011;4282;49.986;7.938;2023-04-07T06:21:12;29.53;;;20.30;;
8490;SDS011;4282;49.986;7.938;2023-04-07T06:23:40;28.33;;;18.83;;
8490;SDS011;4282;49.986;7.938;2023-04-07T06:26:09;28.50;;;19.60;;
8490;SDS011;4282;49.986;7.938;2023-04-07T06:28:38;31.87;;;19.73;;
8490;SDS011;4282;49.986;7.938;2023-04-07T06:31:06;27.33;;;19.07;;
8490;SDS011;4282;49.986;7.938;2023-04-07T06:33:35;26.30;;;16.27;;
8490;SDS011;4282;49.986;7.938;2023-04-07T06:36:05;23.57;;;15.80;;
8490;SDS011;4282;49.986;7.938;2023-04-07T06:38:34;24.07;;;16.03;;
8490;SDS011;4282;49.986;7.938;2023-04-07T06:41:02;23.07;;;15.40;;
8490;SDS011;4282;49.986;7.938;2023-04-07T06:43:32;23.30;;;15.53;;
8490;SDS011;4282;49.986;7.938;2023-04-07T06:46:00;24.40;;;16.20;;
8490;SDS011;4282;49.986;7.938;2023-04-07T06:48:28;18.67;;;13.47;;
8490;SDS011;4282;49.986;7.938;2023-04-07T06:50:57;20.70;;;13.97;;
8490;SDS011;4282;49.986;7.938;2023-04-07T06:53:28;20.53;;;14.70;;
8490;SDS011;4282;49.986;7.938;2023-04-07T06:56:02;23.93;;;15.83;;
8490;SDS011;4282;49.986;7.938;2023-04-07T06:58:31;21.73;;;14.73;;
8490;SDS011;4282;49.986;7.938;2023-04-07T07:00:59;21.87;;;15.47;;
8490;SDS011;4282;49.986;7.938;2023-04-07T07:03:28;20.77;;;14.13;;
8490;SDS011;4282;49.986;7.938;2023-04-07T07:05:56;20.17;;;14.23;;
8490;SDS011;4282;49.986;7.938;2023-04-07T07:08:25;23.80;;;15.70;;
8490;SDS011;4282;49.986;7.938;2023-04-07T07:10:56;21.57;;;15.23;;
8490;SDS011;4282;49.986;7.938;2023-04-07T07:13:25;22.00;;;15.63;;
8490;SDS011;4282;49.986;7.938;2023-04-07T07:15:53;23.83;;;14.67;;
8490;SDS011;4282;49.986;7.938;2023-04-07T07:18:22;22.27;;;14.77;;
8490;SDS011;4282;49.986;7.938;2023-04-07T07:20:50;23.03;;;15.37;;
8490;SDS011;4282;49.986;7.938;2023-04-07T07:23:18;16.40;;;10.67;;
8490;SDS011;4282;49.986;7.938;2023-04-07T07:25:49;23.47;;;16.20;;
8490;SDS011;4282;49.986;7.938;2023-04-07T07:28:17;25.90;;;17.00;;
8490;SDS011;4282;49.986;7.938;2023-04-07T07:30:46;29.58;;;21.77;;
8490;SDS011;4282;49.986;7.938;2023-04-07T07:33:14;24.83;;;16.60;;
8490;SDS011;4282;49.986;7.938;2023-04-07T07:35:42;25.60;;;18.47;;
8490;SDS011;4282;49.986;7.938;2023-04-07T07:38:11;29.63;;;19.07;;
8490;SDS011;4282;49.986;7.938;2023-04-07T07:40:39;30.33;;;20.00;;
8490;SDS011;4282;49.986;7.938;2023-04-07T07:43:10;29.23;;;20.47;;
8490;SDS011;4282;49.986;7.938;2023-04-07T07:45:38;26.50;;;18.57;;
8490;SDS011;4282;49.986;7.938;2023-04-07T07:48:06;27.93;;;20.30;;
8490;SDS011;4282;49.986;7.938;2023-04-07T07:50:35;26.17;;;19.50;;
8490;SDS011;4282;49.986;7.938;2023-04-07T07:53:03;26.40;;;18.80;;
8490;SDS011;4282;49.986;7.938;2023-04-07T07:55:31;25.03;;;18.70;;
8490;SDS011;4282;49.986;7.938;2023-04-07T07:58:00;27.47;;;18.33;;
8490;SDS011;4282;49.986;7.938;2023-04-07T08:00:30;24.17;;;17.73;;
8490;SDS011;4282;49.986;7.938;2023-04-07T08:02:59;22.00;;;16.27;;
8490;SDS011;4282;49.986;7.938;2023-04-07T08:05:27;23.30;;;16.47;;
8490;SDS011;4282;49.986;7.938;2023-04-07T08:07:55;23.43;;;17.97;;
8490;SDS011;4282;49.986;7.938;2023-04-07T08:10:24;24.37;;;17.50;;
8490;SDS011;4282;49.986;7.938;2023-04-07T08:12:52;23.30;;;15.17;;
8490;SDS011;4282;49.986;7.938;2023-04-07T08:15:20;21.80;;;15.33;;
8490;SDS011;4282;49.986;7.938;2023-04-07T08:17:51;22.73;;;15.80;;
8490;SDS011;4282;49.986;7.938;2023-04-07T08:20:19;23.40;;;16.23;;
8490;SDS011;4282;49.986;7.938;2023-04-07T08:22:48;23.00;;;16.93;;
8490;SDS011;4282;49.986;7.938;2023-04-07T08:25:16;23.17;;;16.70;;
8490;SDS011;4282;49.986;7.938;2023-04-07T08:27:44;24.33;;;16.40;;
8490;SDS011;4282;49.986;7.938;2023-04-07T08:30:13;22.70;;;16.03;;
8490;SDS011;4282;49.986;7.938;2023-04-07T08:32:42;32.27;;;21.63;;
8490;SDS011;4282;49.986;7.938;2023-04-07T08:35:13;19.43;;;13.93;;
8490;SDS011;4282;49.986;7.938;2023-04-07T08:37:41;21.60;;;14.20;;
8490;SDS011;4282;49.986;7.938;2023-04-07T08:40:10;18.63;;;13.00;;
8490;SDS011;4282;49.986;7.938;2023-04-07T08:42:39;16.83;;;12.03;;
8490;SDS011;4282;49.986;7.938;2023-04-07T08:45:09;19.33;;;14.23;;
8490;SDS011;4282;49.986;7.938;2023-04-07T08:47:37;20.27;;;13.93;;
8490;SDS011;4282;49.986;7.938;2023-04-07T08:50:08;19.73;;;13.70;;
8490;SDS011;4282;49.986;7.938;2023-04-07T08:52:43;20.20;;;14.57;;
8490;SDS011;4282;49.986;7.938;2023-04-07T08:55:12;17.87;;;12.97;;
8490;SDS011;4282;49.986;7.938;2023-04-07T08:57:41;18.67;;;13.87;;
8490;SDS011;4282;49.986;7.938;2023-04-07T09:00:10;20.40;;;14.50;;
8490;SDS011;4282;49.986;7.938;2023-04-07T09:02:40;21.27;;;14.63;;
8490;SDS011;4282;49.986;7.938;2023-04-07T09:05:12;21.27;;;15.07;;
8490;SDS011;4282;49.986;7.938;2023-04-07T09:07:43;19.60;;;14.07;;
8490;SDS011;4282;49.986;7.938;2023-04-07T09:10:11;15.00;;;11.43;;
8490;SDS011;4282;49.986;7.938;2023-04-07T09:12:39;14.60;;;10.80;;
8490;SDS011;4282;49.986;7.938;2023-04-07T09:15:08;10.10;;;8.23;;
8490;SDS011;4282;49.986;7.938;2023-04-07T09:17:36;12.43;;;9.03;;
8490;SDS011;4282;49.986;7.938;2023-04-07T09:20:05;10.40;;;7.00;;
8490;SDS011;4282;49.986;7.938;2023-04-07T09:22:34;9.87;;;6.70;;
8490;SDS011;4282;49.986;7.938;2023-04-07T09:25:14;6.90;;;5.57;;
8490;SDS011;4282;49.986;7.938;2023-04-07T09:27:56;8.43;;;6.13;;
8490;SDS011;4282;49.986;7.938;2023-04-07T09:30:25;7.07;;;5.63;;
8490;SDS011;4282;49.986;7.938;2023-04-07T09:32:54;9.27;;;5.70;;
8490;SDS011;4282;49.986;7.938;2023-04-07T09:35:22;7.83;;;5.57;;
8490;SDS011;4282;49.986;7.938;2023-04-07T09:38:01;6.33;;;5.07;;
8490;SDS011;4282;49.986;7.938;2023-04-07T09:40:33;7.10;;;4.93;;
8490;SDS011;4282;49.986;7.938;2023-04-07T09:43:02;7.17;;;5.13;;
8490;SDS011;4282;49.986;7.938;2023-04-07T09:45:31;8.70;;;5.63;;
8490;SDS011;4282;49.986;7.938;2023-04-07T09:48:03;5.97;;;5.10;;
8490;SDS011;4282;49.986;7.938;2023-04-07T09:50:33;7.80;;;4.97;;
8490;SDS011;4282;49.986;7.938;2023-04-07T09:53:02;6.50;;;4.40;;
8490;SDS011;4282;49.986;7.938;2023-04-07T09:55:33;6.80;;;4.33;;
8490;SDS011;4282;49.986;7.938;2023-04-07T09:58:02;5.70;;;4.30;;
8490;SDS011;4282;49.986;7.938;2023-04-07T10:00:31;6.40;;;4.80;;
8490;SDS011;4282;49.986;7.938;2023-04-07T10:02:59;8.57;;;5.27;;
8490;SDS011;4282;49.986;7.938;2023-04-07T10:05:28;6.40;;;5.57;;
8490;SDS011;4282;49.986;7.938;2023-04-07T10:07:56;6.80;;;5.27;;
8490;SDS011;4282;49.986;7.938;2023-04-07T10:10:25;6.80;;;4.70;;
8490;SDS011;4282;49.986;7.938;2023-04-07T10:12:56;7.37;;;5.33;;
8490;SDS011;4282;49.986;7.938;2023-04-07T10:15:25;5.60;;;4.60;;
8490;SDS011;4282;49.986;7.938;2023-04-07T10:17:53;6.53;;;4.80;;
8490;SDS011;4282;49.986;7.938;2023-04-07T10:20:22;6.70;;;5.83;;
8490;SDS011;4282;49.986;7.938;2023-04-07T10:22:51;8.73;;;5.37;;
8490;SDS011;4282;49.986;7.938;2023-04-07T10:25:20;7.43;;;5.53;;
8490;SDS011;4282;49.986;7.938;2023-04-07T10:27:51;6.80;;;5.60;;
8490;SDS011;4282;49.986;7.938;2023-04-07T10:30:25;7.67;;;6.27;;
8490;SDS011;4282;49.986;7.938;2023-04-07T10:32:55;7.90;;;6.13;;
8490;SDS011;4282;49.986;7.938;2023-04-07T10:35:23;8.83;;;5.87;;
8490;SDS011;4282;49.986;7.938;2023-04-07T10:40:40;8.50;;;5.93;;
8490;SDS011;4282;49.986;7.938;2023-04-07T10:43:09;8.73;;;5.47;;
